Главная страница
METAR-TAF:

METAR-TAF

Аэропорты :

Хартум, Судан

широта: 15-36N, долгота: 032-33E, высота над уровнем моря: 382 м

Текущие метеонаблюдения

Эта сводка был подготовлена 1 час и 24 минут назад, в 06:00 UTC
Ветер 12 Узел от северный
Температура 31°C
Влажность 11%
Давление 1012 hPa
Видимость: 5000 м
Низовая песчаная метель

METAR: HSSS 230600Z 01012KT 5000 BLSA 31/M03 Q1012 NOSIG

Время: 10:24 (07:24 UTC)

Прогноз

Эта сводка был подготовлена 2 часа и 24 минут назад, в 05:00 UTC
Прогноз действительный с 23-го 06 UTC до 24-го 12 UTC
Ветер 10 Узел от северный с порывами до 20 Узел
Видимость: 8000 м
временами
С 23-го 06 UTC до 23-го 09 UTC

TAF: HSSS 230500Z 2306/2412 36010G20KT 8000 TEMPO 2306/2309 4000BLDU

Метеонаблюдения и прогнозы для более 4000 аэропортов (сводки METAR и TAF).

Имеющиеся станции представлены на карте желтыми и красными точками.

Чтобы увидеть название станции, наведите на нее мышь.

Затем щелкните, чтобы увидеть метеонаблюдения и метеопрогнозы.

Управление картой: чтобы увеличить масштаб, щелкните зеленые кнопки с черным крестиком; чтобы уменьшить масштаб, щелкните зеленую кнопку с тире; для просмотра соседних карт щелкайте зеленые стрелки.


METAR-TAF: